Time;durP1;ratioP1;P1;durP2;ratioP2;P2;SDS_P1;SDS_P2;PMS_P1;PMS_P2;Temp;Humidity;BMP_temperature;BMP_pressure;BME280_temperature;BME280_humidity;BME280_pressure;Samples;Min_cycle;Max_cycle;Signal;HPM_P1;HPM_P2
2023/09/30 00:00:59;;;;;;;1.30;1.30;;;22.00;77.20;;;;;;5048866;28;44000;-70
2023/09/30 00:03:27;;;;;;;1.70;1.60;;;22.10;76.60;;;;;;5049085;28;43426;-70
2023/09/30 00:05:55;;;;;;;1.33;1.33;;;22.20;76.20;;;;;;5049604;28;43453;-70
2023/09/30 00:08:23;;;;;;;1.57;1.57;;;22.20;76.10;;;;;;5051363;28;43720;-70
2023/09/30 00:10:53;;;;;;;1.43;1.43;;;22.10;76.10;;;;;;5053272;28;43578;-74
2023/09/30 00:13:22;;;;;;;1.60;1.60;;;22.00;76.30;;;;;;5046657;28;43351;-70
2023/09/30 00:15:50;;;;;;;1.60;1.60;;;22.00;76.90;;;;;;5050640;28;43499;-70
2023/09/30 00:18:18;;;;;;;1.50;1.50;;;22.00;77.00;;;;;;5049545;28;43619;-70
2023/09/30 00:20:47;;;;;;;1.50;1.50;;;22.00;77.10;;;;;;5051080;28;43454;-70
2023/09/30 00:23:15;;;;;;;1.50;1.50;;;21.90;77.10;;;;;;5047146;28;43419;-70
2023/09/30 00:25:44;;;;;;;1.50;1.50;;;21.80;77.20;;;;;;5049001;28;43881;-70
2023/09/30 00:28:12;;;;;;;1.30;1.30;;;21.80;77.50;;;;;;5068895;28;46021;-70
2023/09/30 00:30:41;;;;;;;1.50;1.50;;;21.80;77.50;;;;;;5063332;28;45170;-70
2023/09/30 00:33:10;;;;;;;1.40;1.40;;;21.80;78.20;;;;;;5053969;28;43430;-70
2023/09/30 00:35:38;;;;;;;1.30;1.30;;;21.70;77.50;;;;;;5049186;28;43432;-70
2023/09/30 00:38:06;;;;;;;1.20;1.20;;;21.70;77.80;;;;;;5048665;28;45650;-70
2023/09/30 00:40:35;;;;;;;1.40;1.40;;;21.70;77.70;;;;;;5047079;28;44722;-70
2023/09/30 00:43:03;;;;;;;1.50;1.50;;;21.80;77.40;;;;;;5051688;28;43466;-70
2023/09/30 00:45:32;;;;;;;1.40;1.40;;;22.00;77.00;;;;;;5047326;28;43487;-70
2023/09/30 00:48:02;;;;;;;1.30;1.30;;;22.10;76.30;;;;;;5043653;28;44699;-70
2023/09/30 00:50:30;;;;;;;1.50;1.40;;;22.20;76.10;;;;;;5051600;28;44800;-70
2023/09/30 00:53:00;;;;;;;1.50;1.50;;;22.20;76.10;;;;;;5048594;28;43482;-70
2023/09/30 00:55:30;;;;;;;1.43;1.43;;;22.10;76.20;;;;;;5048634;28;43400;-70
2023/09/30 00:57:58;;;;;;;1.40;1.40;;;22.00;76.50;;;;;;5061637;28;45732;-70
2023/09/30 01:00:26;;;;;;;1.47;1.47;;;21.90;76.90;;;;;;5048583;28;43435;-70
2023/09/30 01:02:54;;;;;;;1.47;1.47;;;21.90;77.00;;;;;;5063526;28;44133;-71
2023/09/30 01:05:23;;;;;;;1.50;1.50;;;21.90;77.00;;;;;;5046229;28;43454;-71
2023/09/30 01:07:51;;;;;;;1.60;1.60;;;21.80;77.10;;;;;;5060623;28;44026;-72
2023/09/30 01:10:19;;;;;;;1.50;1.50;;;21.80;77.50;;;;;;5045664;28;44369;-72
2023/09/30 01:12:47;;;;;;;1.23;1.23;;;21.80;77.60;;;;;;5052444;28;44184;-71
2023/09/30 01:15:16;;;;;;;1.40;1.40;;;21.70;77.50;;;;;;5047168;28;43535;-71
2023/09/30 01:17:44;;;;;;;1.30;1.30;;;21.70;77.50;;;;;;5052134;28;43859;-71
2023/09/30 01:20:16;;;;;;;1.33;1.33;;;21.70;77.60;;;;;;5051959;28;43503;-71
2023/09/30 01:22:46;;;;;;;1.60;1.57;;;21.70;78.00;;;;;;5049176;28;43978;-72
2023/09/30 01:25:14;;;;;;;1.50;1.50;;;21.70;77.80;;;;;;5050483;28;43451;-71
2023/09/30 01:27:42;;;;;;;1.20;1.20;;;21.80;77.40;;;;;;5056764;28;43627;-71
2023/09/30 01:30:13;;;;;;;1.50;1.50;;;21.90;77.00;;;;;;5051329;28;43397;-71
2023/09/30 01:32:41;;;;;;;1.50;1.50;;;21.90;76.80;;;;;;5050298;28;43466;-71
2023/09/30 01:35:10;;;;;;;1.40;1.40;;;21.90;76.90;;;;;;5051119;28;43475;-72
2023/09/30 01:37:39;;;;;;;1.40;1.40;;;21.90;77.20;;;;;;5051417;28;44106;-71
2023/09/30 01:40:11;;;;;;;1.40;1.40;;;21.90;77.10;;;;;;5052545;28;43478;-71
2023/09/30 01:42:39;;;;;;;1.20;1.20;;;21.90;77.10;;;;;;5051617;28;43466;-71
2023/09/30 01:45:08;;;;;;;1.40;1.40;;;21.90;77.10;;;;;;5048056;28;43482;-71
2023/09/30 01:47:37;;;;;;;1.37;1.37;;;21.80;77.30;;;;;;5050354;28;45739;-71
2023/09/30 01:50:06;;;;;;;1.60;1.60;;;21.80;77.60;;;;;;5055143;28;43872;-72
2023/09/30 01:52:34;;;;;;;1.30;1.30;;;21.80;77.40;;;;;;5065409;28;43499;-72
2023/09/30 01:55:03;;;;;;;1.40;1.40;;;21.90;77.00;;;;;;5053506;28;43924;-72
2023/09/30 01:57:32;;;;;;;1.50;1.50;;;22.00;76.80;;;;;;5049949;28;44628;-72
2023/09/30 02:00:00;;;;;;;1.50;1.50;;;22.00;76.70;;;;;;5064442;28;44759;-73
2023/09/30 02:02:28;;;;;;;1.60;1.43;;;21.90;76.90;;;;;;5060742;28;43473;-73
2023/09/30 02:04:56;;;;;;;1.57;1.57;;;21.90;77.00;;;;;;5048477;28;43460;-72
2023/09/30 02:07:24;;;;;;;1.33;1.33;;;21.90;76.80;;;;;;5049683;28;45388;-72
2023/09/30 02:09:53;;;;;;;1.40;1.40;;;21.90;76.90;;;;;;5053320;28;44000;-71
2023/09/30 02:12:24;;;;;;;1.40;1.40;;;21.80;77.00;;;;;;5047905;28;43341;-71
2023/09/30 02:14:53;;;;;;;1.50;1.50;;;21.80;77.30;;;;;;5048602;28;43442;-71
2023/09/30 02:17:21;;;;;;;1.30;1.30;;;21.80;77.40;;;;;;5050160;28;45815;-70
2023/09/30 02:19:49;;;;;;;1.60;1.60;;;21.80;77.40;;;;;;5073129;28;44779;-70
2023/09/30 02:22:18;;;;;;;1.53;1.53;;;21.70;77.40;;;;;;5069980;28;43375;-70
2023/09/30 02:24:46;;;;;;;1.57;1.50;;;21.70;77.50;;;;;;5073626;28;43459;-70
2023/09/30 02:27:14;;;;;;;1.43;1.43;;;21.70;77.90;;;;;;5070943;28;45902;-70
2023/09/30 02:29:42;;;;;;;1.30;1.30;;;21.60;77.80;;;;;;5066996;28;44754;-72
2023/09/30 02:32:12;;;;;;;1.63;1.63;;;21.60;77.70;;;;;;5053913;28;44104;-72
2023/09/30 02:34:40;;;;;;;1.40;1.40;;;21.60;77.70;;;;;;5053010;28;43396;-72
2023/09/30 02:37:10;;;;;;;1.43;1.43;;;21.60;77.80;;;;;;5047595;28;45879;-71
2023/09/30 02:39:38;;;;;;;1.30;1.30;;;21.60;78.10;;;;;;5049340;28;44755;-72
2023/09/30 02:42:06;;;;;;;1.50;1.50;;;21.60;77.80;;;;;;5052984;28;43500;-72
2023/09/30 02:44:34;;;;;;;1.50;1.50;;;21.80;77.40;;;;;;5065179;28;43431;-72
2023/09/30 02:47:03;;;;;;;1.40;1.40;;;22.00;76.90;;;;;;5053112;28;43737;-72
2023/09/30 02:49:35;;;;;;;1.40;1.40;;;22.10;76.30;;;;;;5053620;28;43540;-72
2023/09/30 02:52:03;;;;;;;1.50;1.50;;;22.10;76.00;;;;;;5048011;28;43409;-72
2023/09/30 02:54:32;;;;;;;1.37;1.37;;;22.10;76.00;;;;;;5049687;28;43570;-72
2023/09/30 02:57:00;;;;;;;1.40;1.40;;;22.00;76.20;;;;;;5047624;28;45717;-72
2023/09/30 02:59:28;;;;;;;1.10;1.10;;;21.90;76.70;;;;;;5051146;28;44815;-72
2023/09/30 03:01:56;;;;;;;1.40;1.40;;;21.90;76.70;;;;;;5072111;27;43440;-71
2023/09/30 03:04:25;;;;;;;1.50;1.50;;;21.90;76.90;;;;;;5057881;28;43502;-72
2023/09/30 03:06:56;;;;;;;1.40;1.40;;;21.80;76.90;;;;;;5050932;28;45327;-72
2023/09/30 03:09:24;;;;;;;1.20;1.20;;;21.80;77.10;;;;;;5049798;28;44913;-73
2023/09/30 03:11:52;;;;;;;1.40;1.40;;;21.70;77.40;;;;;;5050408;28;43496;-72
2023/09/30 03:14:20;;;;;;;1.60;1.60;;;21.70;77.40;;;;;;5050785;28;43376;-72
2023/09/30 03:16:48;;;;;;;2.27;2.10;;;21.70;77.40;;;;;;5048792;28;43623;-72
2023/09/30 03:19:17;;;;;;;7.80;2.93;;;21.70;77.50;;;;;;5052555;28;43514;-67
2023/09/30 03:21:46;;;;;;;11.63;4.30;;;21.60;77.50;;;;;;5067825;28;43366;-70
2023/09/30 03:24:16;;;;;;;7.60;4.20;;;21.70;77.80;;;;;;5074095;28;43471;-70
2023/09/30 03:26:44;;;;;;;13.63;5.17;;;21.70;77.40;;;;;;5070279;28;45948;-70
2023/09/30 03:29:13;;;;;;;14.40;5.87;;;21.90;77.00;;;;;;5071747;28;43320;-70
2023/09/30 03:31:41;;;;;;;18.57;6.30;;;22.00;76.40;;;;;;5074660;28;43369;-70
2023/09/30 03:34:09;;;;;;;16.40;6.73;;;22.10;76.00;;;;;;5073555;28;43371;-70
2023/09/30 03:36:38;;;;;;;14.47;6.17;;;22.10;76.60;;;;;;5075358;28;44523;-70
2023/09/30 03:39:08;;;;;;;17.10;7.03;;;22.10;76.10;;;;;;5071300;28;43483;-70
2023/09/30 03:41:37;;;;;;;21.13;8.00;;;22.00;76.30;;;;;;5073890;28;43498;-70
2023/09/30 03:44:08;;;;;;;22.57;8.20;;;21.90;76.80;;;;;;5077313;28;43435;-70
2023/09/30 03:46:36;;;;;;;20.50;7.60;;;21.90;76.90;;;;;;5068348;28;45693;-70
2023/09/30 03:49:04;;;;;;;18.10;7.50;;;21.80;76.80;;;;;;5092548;28;45158;-70
2023/09/30 03:51:32;;;;;;;17.80;7.60;;;21.80;77.00;;;;;;5070043;28;43485;-70
2023/09/30 03:54:02;;;;;;;19.43;8.43;;;21.70;77.30;;;;;;5071169;28;43523;-70
2023/09/30 03:56:31;;;;;;;18.60;8.37;;;21.80;77.40;;;;;;5078486;28;43840;-70
2023/09/30 03:59:00;;;;;;;17.73;8.07;;;21.70;77.40;;;;;;5076667;28;43437;-70
2023/09/30 04:01:28;;;;;;;14.83;7.50;;;21.70;77.30;;;;;;5073105;28;43373;-70
2023/09/30 04:03:57;;;;;;;16.70;8.07;;;21.70;77.50;;;;;;5076403;28;43463;-70
2023/09/30 04:06:25;;;;;;;20.60;8.80;;;21.60;77.70;;;;;;5072241;28;43919;-69
2023/09/30 04:08:54;;;;;;;20.50;8.60;;;21.70;77.80;;;;;;5070250;28;43716;-69
2023/09/30 04:11:22;;;;;;;25.93;9.07;;;21.80;77.50;;;;;;5071309;28;43411;-71
2023/09/30 04:13:50;;;;;;;22.57;9.43;;;21.90;76.90;;;;;;5075629;28;43424;-69
2023/09/30 04:16:20;;;;;;;19.60;8.83;;;22.10;76.40;;;;;;5079309;28;43619;-70
2023/09/30 04:18:50;;;;;;;20.00;8.67;;;22.20;76.10;;;;;;5077448;28;44109;-68
2023/09/30 04:21:18;;;;;;;18.73;8.40;;;22.10;76.00;;;;;;5073951;28;43430;-69
2023/09/30 04:23:46;;;;;;;19.07;8.60;;;22.10;76.20;;;;;;5072220;28;43451;-70
2023/09/30 04:26:14;;;;;;;19.17;8.53;;;22.00;76.40;;;;;;5077488;28;45966;-70
2023/09/30 04:28:43;;;;;;;19.00;8.67;;;21.90;76.80;;;;;;5069131;28;43421;-71
2023/09/30 04:31:13;;;;;;;24.77;9.87;;;21.90;77.00;;;;;;5056208;28;43504;-71
2023/09/30 04:33:43;;;;;;;20.37;9.10;;;21.90;77.00;;;;;;5051089;28;43577;-71
2023/09/30 04:36:11;;;;;;;20.20;9.77;;;21.80;77.10;;;;;;5043286;28;43997;-70
2023/09/30 04:38:39;;;;;;;17.93;8.67;;;21.80;77.40;;;;;;5047725;28;43407;-70
2023/09/30 04:41:08;;;;;;;16.60;8.83;;;21.70;77.50;;;;;;5049675;28;43521;-70
2023/09/30 04:43:37;;;;;;;18.80;8.70;;;21.70;77.40;;;;;;5049678;28;43433;-70
2023/09/30 04:46:07;;;;;;;16.17;7.97;;;21.70;77.40;;;;;;5049737;28;45420;-70
2023/09/30 04:48:38;;;;;;;20.67;8.80;;;21.70;77.60;;;;;;5048013;28;43453;-70
2023/09/30 04:51:08;;;;;;;18.80;9.27;;;21.60;77.70;;;;;;5047758;28;43443;-69
2023/09/30 04:53:37;;;;;;;17.90;9.30;;;21.60;77.80;;;;;;5054551;28;44022;-69
2023/09/30 04:56:05;;;;;;;19.50;9.30;;;21.80;77.60;;;;;;5054637;28;43594;-71
2023/09/30 04:58:34;;;;;;;18.60;9.47;;;21.90;77.10;;;;;;5050584;28;44852;-69
2023/09/30 05:01:03;;;;;;;18.50;9.27;;;22.00;76.50;;;;;;5057646;28;43419;-69
2023/09/30 05:03:31;;;;;;;19.17;8.73;;;22.10;76.20;;;;;;5053581;28;43367;-70
2023/09/30 05:05:59;;;;;;;18.90;9.40;;;22.10;76.10;;;;;;5051345;28;43611;-69
2023/09/30 05:08:29;;;;;;;19.70;9.50;;;22.00;76.30;;;;;;5054862;28;43540;-69
2023/09/30 05:10:57;;;;;;;17.40;8.87;;;22.00;76.70;;;;;;5054667;28;43372;-69
2023/09/30 05:13:25;;;;;;;17.00;8.67;;;21.90;76.80;;;;;;5050944;28;43487;-69
2023/09/30 05:15:52;;;;;;;17.77;9.67;;;21.90;77.30;;;;;;5055550;28;43836;-70
2023/09/30 05:18:20;;;;;;;17.10;9.03;;;21.80;76.90;;;;;;5053800;28;43453;-71
2023/09/30 05:20:49;;;;;;;17.97;9.20;;;21.80;77.20;;;;;;5051746;28;43446;-70
2023/09/30 05:23:18;;;;;;;17.00;8.90;;;21.70;77.40;;;;;;5057252;28;43585;-70
2023/09/30 05:25:48;;;;;;;18.23;8.73;;;21.70;77.30;;;;;;5051459;28;43681;-69
2023/09/30 05:28:16;;;;;;;15.40;7.97;;;21.70;77.30;;;;;;5051101;28;43550;-71
2023/09/30 05:30:45;;;;;;;13.90;8.10;;;21.70;77.40;;;;;;5050256;28;43538;-70
2023/09/30 05:33:14;;;;;;;16.63;8.70;;;21.70;77.50;;;;;;5050105;28;43762;-70
2023/09/30 05:35:42;;;;;;;14.70;8.13;;;21.60;77.70;;;;;;5053354;28;43845;-70
2023/09/30 05:38:12;;;;;;;15.63;8.50;;;21.70;77.60;;;;;;5050127;28;43415;-70
2023/09/30 05:40:41;;;;;;;15.40;8.33;;;21.80;77.20;;;;;;5057719;28;43432;-67
2023/09/30 05:43:13;;;;;;;16.40;8.63;;;22.00;76.70;;;;;;5059399;28;43397;-67
2023/09/30 05:45:48;;;;;;;18.10;9.30;;;22.00;76.20;;;;;;5063142;28;43833;-66
2023/09/30 05:48:17;;;;;;;20.10;8.77;;;22.00;76.00;;;;;;5056336;28;43453;-67
2023/09/30 05:50:45;;;;;;;14.60;7.90;;;22.00;76.20;;;;;;5059587;28;43339;-67
2023/09/30 05:53:13;;;;;;;13.83;7.63;;;21.90;76.50;;;;;;5059015;28;43482;-67
2023/09/30 05:55:43;;;;;;;16.23;8.40;;;21.90;77.00;;;;;;5055154;28;43707;-67
2023/09/30 05:58:14;;;;;;;17.23;8.60;;;21.80;76.90;;;;;;5054945;28;43428;-66
2023/09/30 06:00:44;;;;;;;13.13;7.90;;;21.80;77.00;;;;;;5060370;28;43397;-66
2023/09/30 06:03:13;;;;;;;13.57;8.30;;;21.80;77.10;;;;;;5059486;28;43971;-66
2023/09/30 06:05:41;;;;;;;15.90;8.50;;;21.70;77.10;;;;;;5054453;28;43859;-70
2023/09/30 06:08:13;;;;;;;14.23;7.63;;;21.70;77.50;;;;;;5059053;28;44690;-69
2023/09/30 06:10:42;;;;;;;13.50;8.47;;;21.70;77.30;;;;;;5059669;28;43442;-67
2023/09/30 06:13:10;;;;;;;13.37;7.97;;;21.80;77.00;;;;;;5056351;28;43407;-70
2023/09/30 06:15:41;;;;;;;12.40;7.43;;;21.90;76.80;;;;;;5057972;28;43631;-68
2023/09/30 06:18:12;;;;;;;14.70;8.00;;;21.90;76.80;;;;;;5058429;28;43432;-66
2023/09/30 06:20:41;;;;;;;12.70;7.43;;;21.80;77.00;;;;;;5055945;28;43409;-67
2023/09/30 06:23:09;;;;;;;14.03;7.67;;;21.80;77.10;;;;;;5058914;28;43450;-66
2023/09/30 06:25:39;;;;;;;13.00;7.70;;;21.80;77.00;;;;;;5057461;28;43589;-65
2023/09/30 06:28:08;;;;;;;9.93;7.07;;;21.80;77.80;;;;;;5060438;28;43448;-66
2023/09/30 06:30:37;;;;;;;12.30;7.47;;;21.70;77.10;;;;;;5056565;28;44172;-66
2023/09/30 06:33:07;;;;;;;11.23;7.00;;;21.70;77.50;;;;;;5058133;28;43617;-66
2023/09/30 06:35:38;;;;;;;13.77;7.90;;;21.70;77.50;;;;;;5057148;28;43769;-66
2023/09/30 06:38:07;;;;;;;12.10;7.50;;;21.70;77.40;;;;;;5050906;28;43721;-66
2023/09/30 06:40:35;;;;;;;14.43;7.83;;;21.60;77.40;;;;;;5055508;28;43474;-66
2023/09/30 06:43:08;;;;;;;10.53;7.07;;;21.60;77.50;;;;;;5054841;28;43370;-67
2023/09/30 06:45:41;;;;;;;10.10;6.97;;;21.60;77.90;;;;;;5057582;28;43903;-66
2023/09/30 06:48:12;;;;;;;11.27;7.20;;;21.70;77.70;;;;;;5062847;28;43467;-69
2023/09/30 06:50:41;;;;;;;11.33;7.40;;;21.80;77.20;;;;;;5051951;28;43478;-70
2023/09/30 06:53:09;;;;;;;11.07;6.60;;;21.90;76.60;;;;;;5051632;28;44161;-70
2023/09/30 06:55:39;;;;;;;10.67;6.63;;;22.10;76.20;;;;;;5051476;28;43946;-70
2023/09/30 06:58:08;;;;;;;10.53;6.63;;;22.00;76.00;;;;;;5054171;28;43556;-70
2023/09/30 07:00:37;;;;;;;10.17;6.93;;;22.00;76.10;;;;;;5049025;28;43992;-70
2023/09/30 07:03:05;;;;;;;11.77;6.87;;;22.00;76.40;;;;;;5052498;28;43574;-71
2023/09/30 07:05:34;;;;;;;10.47;6.60;;;21.80;76.80;;;;;;5054099;28;46319;-69
2023/09/30 07:08:03;;;;;;;11.07;7.23;;;21.80;76.90;;;;;;5052477;28;43381;-70
2023/09/30 07:10:31;;;;;;;9.00;6.70;;;21.80;76.90;;;;;;5049058;28;43467;-70
2023/09/30 07:12:59;;;;;;;9.63;6.47;;;21.80;77.00;;;;;;5055992;28;43433;-71
2023/09/30 07:15:27;;;;;;;10.27;6.50;;;21.70;77.10;;;;;;5049726;28;43783;-71
2023/09/30 07:17:56;;;;;;;9.17;6.27;;;21.70;77.50;;;;;;5049742;28;43408;-70
2023/09/30 07:20:24;;;;;;;8.90;6.17;;;21.60;77.50;;;;;;5053275;28;43846;-70
2023/09/30 07:22:53;;;;;;;7.73;6.20;;;21.60;77.50;;;;;;5052179;28;43454;-70
2023/09/30 07:25:38;;;;;;;8.97;7.10;;;21.60;77.50;;;;;;5046830;28;45891;-70
2023/09/30 07:28:11;;;;;;;10.93;7.00;;;21.60;77.80;;;;;;5048133;28;44397;-71
2023/09/30 07:30:40;;;;;;;10.33;6.77;;;21.60;77.90;;;;;;5052839;28;43398;-69
2023/09/30 07:33:08;;;;;;;9.77;6.47;;;21.60;77.50;;;;;;5054812;28;44364;-69
2023/09/30 07:35:36;;;;;;;8.43;6.47;;;21.80;77.10;;;;;;5054166;28;43858;-71
2023/09/30 07:38:06;;;;;;;10.00;6.73;;;21.90;76.50;;;;;;5052239;28;43425;-71
2023/09/30 07:40:34;;;;;;;9.90;6.50;;;22.00;76.10;;;;;;5044487;28;43449;-70
2023/09/30 07:43:02;;;;;;;7.27;6.00;;;22.00;76.10;;;;;;5058253;28;43486;-70
2023/09/30 07:45:30;;;;;;;6.70;6.07;;;22.00;77.10;;;;;;5049336;28;43923;-70
2023/09/30 07:47:59;;;;;;;8.53;6.43;;;21.80;76.50;;;;;;5052723;28;43495;-70
2023/09/30 07:50:27;;;;;;;8.20;6.53;;;21.80;77.00;;;;;;5050703;28;44023;-71
2023/09/30 07:52:55;;;;;;;6.70;5.90;;;21.80;77.00;;;;;;5051406;28;43961;-70
2023/09/30 07:55:24;;;;;;;6.70;5.60;;;21.70;77.00;;;;;;5047900;28;43613;-70
2023/09/30 07:57:52;;;;;;;9.37;6.10;;;21.70;77.20;;;;;;5044513;28;45171;-71
2023/09/30 08:00:21;;;;;;;8.30;6.23;;;21.60;77.50;;;;;;5052498;28;43403;-70
2023/09/30 08:02:50;;;;;;;7.67;5.50;;;21.60;77.50;;;;;;5059635;28;43523;-70
2023/09/30 08:05:18;;;;;;;6.57;5.90;;;21.60;77.50;;;;;;5048732;28;43894;-70
2023/09/30 08:07:47;;;;;;;8.13;5.70;;;21.60;77.50;;;;;;5048882;28;43424;-70
2023/09/30 08:10:16;;;;;;;8.20;5.80;;;21.60;77.60;;;;;;5052089;28;43441;-70
2023/09/30 08:12:48;;;;;;;7.57;5.87;;;21.50;77.80;;;;;;5050082;28;43336;-70
2023/09/30 08:15:16;;;;;;;8.97;5.97;;;21.50;77.80;;;;;;5048184;28;45806;-70
2023/09/30 08:17:45;;;;;;;6.83;5.60;;;21.60;77.50;;;;;;5048943;28;43983;-70
2023/09/30 08:20:13;;;;;;;7.83;5.93;;;21.80;77.10;;;;;;5049278;28;44169;-70
2023/09/30 08:22:41;;;;;;;7.23;6.13;;;21.90;76.50;;;;;;5051554;28;43387;-70
2023/09/30 08:25:10;;;;;;;7.03;5.73;;;22.00;76.20;;;;;;5047710;28;43845;-70
2023/09/30 08:27:38;;;;;;;6.13;5.40;;;22.00;76.10;;;;;;5054969;28;43344;-70
2023/09/30 08:30:10;;;;;;;7.43;5.47;;;21.90;76.20;;;;;;5054415;28;43431;-71
2023/09/30 08:32:38;;;;;;;6.20;5.60;;;21.90;76.60;;;;;;5051314;28;43912;-71
2023/09/30 08:35:09;;;;;;;6.53;5.07;;;21.80;76.90;;;;;;5052889;28;44022;-70
2023/09/30 08:37:42;;;;;;;5.87;5.17;;;21.80;76.90;;;;;;5056298;28;43472;-70
2023/09/30 08:40:11;;;;;;;5.70;5.10;;;21.70;77.00;;;;;;5047524;28;43951;-70
2023/09/30 08:42:39;;;;;;;6.80;5.37;;;21.70;77.10;;;;;;5045896;28;43515;-70
2023/09/30 08:45:11;;;;;;;6.40;5.03;;;21.60;77.40;;;;;;5047476;28;43865;-70
2023/09/30 08:47:39;;;;;;;5.00;4.47;;;21.60;77.50;;;;;;5041747;28;44785;-70
2023/09/30 08:50:10;;;;;;;5.20;4.70;;;21.60;77.50;;;;;;5050674;28;43442;-70
2023/09/30 08:52:38;;;;;;;5.30;4.77;;;21.60;77.50;;;;;;5042887;28;43449;-70
2023/09/30 08:55:09;;;;;;;6.03;4.90;;;21.50;77.50;;;;;;5047800;28;43615;-70
2023/09/30 08:57:39;;;;;;;6.77;5.27;;;21.50;77.90;;;;;;5048934;28;43859;-70
2023/09/30 09:00:11;;;;;;;5.40;4.90;;;21.60;77.70;;;;;;5045608;28;43538;-71
2023/09/30 09:02:39;;;;;;;5.60;5.00;;;21.70;77.30;;;;;;5047244;28;43411;-70
2023/09/30 09:05:09;;;;;;;5.33;4.83;;;21.80;76.70;;;;;;5049846;28;43623;-70
2023/09/30 09:07:37;;;;;;;5.23;4.83;;;22.00;76.30;;;;;;5046279;28;44047;-70
2023/09/30 09:10:06;;;;;;;5.57;5.07;;;22.00;76.10;;;;;;5048078;28;43346;-72
2023/09/30 09:12:36;;;;;;;5.33;4.27;;;22.00;76.20;;;;;;5047454;28;43401;-72
2023/09/30 09:15:06;;;;;;;4.87;4.47;;;21.90;76.40;;;;;;5041305;28;43995;-72
2023/09/30 09:17:45;;;;;;;4.53;4.13;;;21.80;76.70;;;;;;5058595;28;44121;-72
2023/09/30 09:20:19;;;;;;;4.30;4.00;;;21.80;77.00;;;;;;5046545;28;43877;-72
2023/09/30 09:22:49;;;;;;;4.70;4.30;;;21.70;77.00;;;;;;5046981;28;43391;-72
2023/09/30 09:25:17;;;;;;;4.83;4.50;;;21.70;77.10;;;;;;5048327;28;44026;-73
2023/09/30 09:27:45;;;;;;;3.93;3.70;;;21.60;77.20;;;;;;5049527;28;43749;-71
2023/09/30 09:30:18;;;;;;;4.20;3.90;;;21.60;77.60;;;;;;5047229;28;43474;-72
2023/09/30 09:33:01;;;;;;;4.77;4.47;;;21.60;77.50;;;;;;5049511;28;43574;-72
2023/09/30 09:35:30;;;;;;;4.53;4.13;;;21.60;77.50;;;;;;5042177;28;43849;-72
2023/09/30 09:37:59;;;;;;;4.20;3.80;;;21.60;77.60;;;;;;5046822;28;43328;-72
2023/09/30 09:40:28;;;;;;;4.43;4.10;;;21.50;77.90;;;;;;5048452;28;43317;-71
2023/09/30 09:42:56;;;;;;;4.20;3.90;;;21.50;77.80;;;;;;5049516;28;43423;-72
2023/09/30 09:45:26;;;;;;;3.97;3.70;;;21.70;77.50;;;;;;5056175;28;43844;-72
2023/09/30 09:47:54;;;;;;;4.20;3.80;;;21.80;77.10;;;;;;5057630;28;43403;-72
2023/09/30 09:50:23;;;;;;;4.53;4.13;;;21.90;76.50;;;;;;5051437;28;43435;-72
2023/09/30 09:52:53;;;;;;;4.00;3.70;;;22.00;76.20;;;;;;5052283;28;43457;-72
2023/09/30 09:55:21;;;;;;;4.10;3.83;;;22.00;76.30;;;;;;5050243;28;43623;-72
2023/09/30 09:57:50;;;;;;;3.93;3.63;;;21.90;76.50;;;;;;5049621;28;43904;-72
2023/09/30 10:00:19;;;;;;;3.60;3.33;;;21.80;76.70;;;;;;5048342;28;44112;-72
2023/09/30 10:02:47;;;;;;;3.90;3.70;;;21.80;76.90;;;;;;5057327;28;43383;-71
2023/09/30 10:05:16;;;;;;;3.93;3.63;;;21.80;77.00;;;;;;5050422;28;43826;-72
2023/09/30 10:07:48;;;;;;;3.70;3.50;;;21.80;77.20;;;;;;5048438;28;45116;-71
2023/09/30 10:10:17;;;;;;;3.30;3.10;;;21.70;77.20;;;;;;5055792;28;43466;-72
2023/09/30 10:12:46;;;;;;;3.70;3.50;;;21.70;77.50;;;;;;5053221;28;43447;-70
2023/09/30 10:15:35;;;;;;;3.90;3.60;;;21.60;77.40;;;;;;5051961;28;43616;-72
2023/09/30 10:18:04;;;;;;;3.30;3.10;;;21.70;77.60;;;;;;5052950;28;43589;-71
2023/09/30 10:20:33;;;;;;;3.33;3.13;;;21.60;77.60;;;;;;5053527;28;43971;-70
2023/09/30 10:23:25;;;;;;;3.50;3.30;;;21.60;78.40;;;;;;5051172;28;43380;-71
2023/09/30 10:25:57;;;;;;;3.70;3.50;;;21.60;78.00;;;;;;5051566;28;45932;-72
2023/09/30 10:28:38;;;;;;;3.20;3.10;;;21.60;77.80;;;;;;5051760;28;44417;-71
2023/09/30 10:31:12;;;;;;;3.70;3.50;;;21.70;77.40;;;;;;5049939;28;43888;-71
2023/09/30 10:34:17;;;;;;;3.47;3.27;;;21.90;77.00;;;;;;5043260;28;43412;-70
2023/09/30 10:36:45;;;;;;;3.50;3.30;;;22.00;76.40;;;;;;5047898;28;43617;-71
2023/09/30 10:39:15;;;;;;;3.67;3.47;;;22.00;76.20;;;;;;5049002;28;44255;-71
2023/09/30 10:41:52;;;;;;;3.10;3.00;;;22.00;76.50;;;;;;5049669;28;43328;-73
2023/09/30 10:44:36;;;;;;;3.10;2.90;;;21.90;76.70;;;;;;5042970;28;43423;-71
2023/09/30 10:47:35;;;;;;;3.10;2.90;;;21.80;77.00;;;;;;5046689;28;43618;-72
2023/09/30 10:50:05;;;;;;;3.13;2.93;;;21.80;77.10;;;;;;5048973;28;43973;-72
2023/09/30 10:52:33;;;;;;;3.30;3.20;;;21.80;77.30;;;;;;5042935;28;43478;-72
2023/09/30 10:55:07;;;;;;;3.10;2.90;;;21.70;77.50;;;;;;5048406;28;43444;-72
2023/09/30 10:57:35;;;;;;;3.40;3.30;;;21.70;77.70;;;;;;5044423;28;45669;-72
2023/09/30 11:00:11;;;;;;;2.90;2.80;;;21.70;78.40;;;;;;5049144;28;43483;-72
2023/09/30 11:02:52;;;;;;;3.00;2.90;;;21.70;77.30;;;;;;5048910;28;43450;-73
2023/09/30 11:05:21;;;;;;;2.67;2.57;;;21.80;77.30;;;;;;5049597;28;43332;-72
2023/09/30 11:08:08;;;;;;;3.07;2.97;;;21.70;77.40;;;;;;5047441;28;44961;-72
2023/09/30 11:10:37;;;;;;;2.97;2.77;;;21.70;77.40;;;;;;5049060;28;43349;-72
2023/09/30 11:13:05;;;;;;;3.00;2.80;;;21.70;77.40;;;;;;5052372;28;43335;-72
2023/09/30 11:15:33;;;;;;;2.90;2.80;;;21.70;77.50;;;;;;5049091;28;43455;-73
2023/09/30 11:18:13;;;;;;;2.80;2.70;;;21.70;77.70;;;;;;5048527;28;43663;-72
2023/09/30 11:20:42;;;;;;;2.90;2.80;;;21.70;77.90;;;;;;5042641;28;45627;-72
2023/09/30 11:23:10;;;;;;;2.73;2.63;;;21.60;77.90;;;;;;5048775;28;43486;-72
2023/09/30 11:25:41;;;;;;;3.00;2.80;;;21.70;77.70;;;;;;5049255;28;43395;-72
2023/09/30 11:28:15;;;;;;;2.87;2.77;;;21.80;77.40;;;;;;5048574;28;43945;-72
2023/09/30 11:30:56;;;;;;;2.70;2.60;;;21.90;76.90;;;;;;5049204;28;43992;-70
2023/09/30 11:33:25;;;;;;;2.87;2.67;;;22.00;76.50;;;;;;5048700;28;43360;-70
2023/09/30 11:36:02;;;;;;;2.70;2.60;;;22.00;76.50;;;;;;5048197;28;43478;-70
2023/09/30 11:38:31;;;;;;;2.57;2.47;;;21.90;76.90;;;;;;5048192;28;43907;-70
2023/09/30 11:41:02;;;;;;;2.97;2.87;;;21.90;77.20;;;;;;5048254;28;43400;-70
2023/09/30 11:43:30;;;;;;;2.80;2.70;;;21.80;77.20;;;;;;5046094;28;44057;-70
2023/09/30 11:46:08;;;;;;;2.70;2.60;;;21.80;77.30;;;;;;5048737;28;43885;-70
2023/09/30 11:48:37;;;;;;;2.60;2.50;;;21.80;77.50;;;;;;5042837;28;45271;-69
2023/09/30 11:51:05;;;;;;;2.40;2.30;;;21.70;77.60;;;;;;5047960;28;43968;-70
2023/09/30 11:53:35;;;;;;;2.50;2.30;;;21.70;77.70;;;;;;5047736;28;43423;-70
2023/09/30 11:56:08;;;;;;;2.63;2.53;;;21.70;77.80;;;;;;5043766;28;43480;-71
2023/09/30 11:58:35;;;;;;;2.37;2.27;;;21.70;77.80;;;;;;5047788;28;43906;-71
2023/09/30 12:01:06;;;;;;;2.53;2.43;;;21.70;77.80;;;;;;5046707;28;44849;-70
2023/09/30 12:03:39;;;;;;;2.77;2.67;;;21.60;77.80;;;;;;5043281;28;43419;-71
2023/09/30 12:06:07;;;;;;;2.57;2.47;;;21.60;78.00;;;;;;5048071;28;44026;-70
2023/09/30 12:08:37;;;;;;;2.77;2.67;;;21.60;77.90;;;;;;5045040;28;43904;-70
2023/09/30 12:11:06;;;;;;;2.53;2.43;;;21.70;78.20;;;;;;5047793;28;43447;-70
2023/09/30 12:13:35;;;;;;;2.57;2.47;;;21.90;77.00;;;;;;5047774;28;43671;-70
2023/09/30 12:16:03;;;;;;;2.60;2.50;;;22.00;76.50;;;;;;5048248;28;43309;-70
2023/09/30 12:18:31;;;;;;;2.40;2.30;;;22.00;76.30;;;;;;5047053;28;44117;-71
2023/09/30 12:21:00;;;;;;;2.40;2.30;;;22.00;76.40;;;;;;5047662;28;43384;-70
2023/09/30 12:23:28;;;;;;;2.50;2.40;;;21.90;76.60;;;;;;5047843;28;43434;-71
2023/09/30 12:25:56;;;;;;;2.73;2.63;;;21.80;77.00;;;;;;5047392;28;43360;-70
2023/09/30 12:28:42;;;;;;;2.50;2.40;;;21.80;77.80;;;;;;5063007;28;45854;-70
2023/09/30 12:31:11;;;;;;;2.27;2.27;;;21.80;77.40;;;;;;5045147;28;43351;-71
2023/09/30 12:33:39;;;;;;;2.50;2.40;;;21.70;77.40;;;;;;5040835;28;43465;-70
2023/09/30 12:36:07;;;;;;;2.60;2.50;;;21.70;77.60;;;;;;5046373;28;43398;-70
2023/09/30 12:38:35;;;;;;;2.10;2.10;;;21.60;77.70;;;;;;5037324;28;43603;-70
2023/09/30 12:41:03;;;;;;;2.37;2.30;;;21.70;77.80;;;;;;5043984;28;43961;-70
2023/09/30 12:43:31;;;;;;;2.07;2.07;;;21.70;78.00;;;;;;5044150;28;43917;-70
2023/09/30 12:46:01;;;;;;;2.70;2.60;;;21.60;77.90;;;;;;5047697;28;43384;-70
2023/09/30 12:48:29;;;;;;;2.67;2.57;;;21.60;78.10;;;;;;5046715;28;43857;-70
2023/09/30 12:50:57;;;;;;;2.67;2.57;;;21.60;78.10;;;;;;5059733;28;43416;-70
2023/09/30 12:53:25;;;;;;;2.57;2.40;;;21.60;77.60;;;;;;5070350;28;43423;-69
2023/09/30 12:55:53;;;;;;;2.53;2.43;;;21.80;77.20;;;;;;5073924;28;43417;-70